Terminal Aerodrome Forecast
Issued by NWS

Home | Current Version | Previous Version | Text Only | Print | Product List | Glossary On
Versions: 1 2 3 4 5 6 7 8 9 10 11 12 13 14 15 16 17
000
FTUS43 KILX 250000 AAA
TAFBMI
TAF AMD
KBMI 250007Z 2500/2524 14011KT P6SM -RA FEW040 OVC070
     FM250200 17010KT 6SM -RA OVC045
     FM250400 20010KT 6SM -RA SCT007 OVC035
     FM250900 31014G20KT P6SM SCT015
     FM251100 30012KT P6SM SKC=

USA.gov is the U.S. government's official web portal to all federal, state and local government web resources and services.